Time;durP1;ratioP1;P1;durP2;ratioP2;P2;SDS_P1;SDS_P2;PMS_P1;PMS_P2;Temp;Humidity;BMP_temperature;BMP_pressure;BME280_temperature;BME280_humidity;BME280_pressure;Samples;Min_cycle;Max_cycle;Signal;HPM_P1;HPM_P2
2024/01/29 00:00:26;;;;;;;37.65;25.40;;;;;;;2.55;60.44;102115.53;4421996;32;20168;-74
2024/01/29 00:02:55;;;;;;;30.77;24.67;;;;;;;2.46;60.31;102113.81;4421871;32;20121;-74
2024/01/29 00:05:25;;;;;;;37.03;25.45;;;;;;;2.37;60.34;102119.03;4422167;32;20136;-74
2024/01/29 00:07:54;;;;;;;33.53;24.60;;;;;;;2.51;59.92;102113.81;4412802;32;20144;-74
2024/01/29 00:10:25;;;;;;;36.33;24.90;;;;;;;2.36;60.46;102111.19;4418658;32;20153;-74
2024/01/29 00:12:54;;;;;;;32.75;24.27;;;;;;;2.34;60.47;102110.34;4423677;32;20489;-74
2024/01/29 00:15:25;;;;;;;36.80;24.23;;;;;;;2.27;60.67;102106.84;4423955;32;20187;-74
2024/01/29 00:17:54;;;;;;;31.25;23.15;;;;;;;2.13;61.11;102101.59;4423377;32;20264;-74
2024/01/29 00:20:23;;;;;;;33.28;22.42;;;;;;;2.29;60.46;102093.75;4401508;27;20414;-74
2024/01/29 00:22:52;;;;;;;29.60;22.30;;;;;;;2.21;60.92;102088.50;4393435;32;20137;-74
2024/01/29 00:25:22;;;;;;;32.33;22.52;;;;;;;2.18;60.84;102101.63;4393287;32;20176;-74
2024/01/29 00:27:51;;;;;;;30.42;22.83;;;;;;;2.24;60.55;102101.59;4393031;32;20164;-74
2024/01/29 00:30:21;;;;;;;26.40;19.80;;;;;;;2.25;60.59;102099.84;4393570;32;20158;-74
2024/01/29 00:32:52;;;;;;;27.65;20.77;;;;;;;2.30;60.24;102090.28;4393173;32;20173;-74
2024/01/29 00:35:21;;;;;;;28.77;23.12;;;;;;;2.25;60.42;102097.22;4401278;32;20172;-74
2024/01/29 00:37:50;;;;;;;32.45;21.08;;;;;;;2.26;60.17;102098.97;4408206;32;20144;-74
2024/01/29 00:40:21;;;;;;;36.85;23.60;;;;;;;2.20;60.25;102094.63;4408360;32;20415;-74
2024/01/29 00:42:50;;;;;;;29.12;21.67;;;;;;;2.14;60.28;102105.97;4408276;32;20400;-74
2024/01/29 00:45:20;;;;;;;32.88;24.12;;;;;;;2.08;60.21;102111.19;4408233;32;20434;-74
2024/01/29 00:47:56;;;;;;;30.12;25.10;;;;;;;2.20;59.85;102094.63;4408101;32;20169;-74
2024/01/29 00:50:25;;;;;;;31.12;22.87;;;;;;;2.09;60.09;102101.59;4419757;27;20172;-74
2024/01/29 00:52:55;;;;;;;29.15;22.25;;;;;;;2.17;60.00;102099.84;4408117;32;20484;-74
2024/01/29 00:55:24;;;;;;;33.10;25.20;;;;;;;2.23;59.53;102099.84;4408153;32;20150;-74
2024/01/29 00:57:53;;;;;;;40.60;24.67;;;;;;;2.11;59.81;102108.56;4408019;32;20145;-74
2024/01/29 01:00:23;;;;;;;32.95;25.50;;;;;;;2.12;59.74;102118.16;4408199;32;20160;-74
2024/01/29 01:02:52;;;;;;;33.28;22.90;;;;;;;2.15;59.51;102128.63;4408215;32;20176;-74
2024/01/29 01:05:26;;;;;;;28.58;22.42;;;;;;;2.13;59.55;102134.72;4408507;32;20200;-74
2024/01/29 01:07:55;;;;;;;33.15;23.17;;;;;;;1.88;60.04;102131.19;4401863;32;20145;-74
2024/01/29 01:10:25;;;;;;;28.83;23.80;;;;;;;1.95;59.91;102131.22;4408159;32;20148;-74
2024/01/29 01:12:54;;;;;;;34.47;24.92;;;;;;;1.84;60.20;102138.16;4408109;32;20133;-74
2024/01/29 01:15:24;;;;;;;27.67;23.33;;;;;;;1.86;60.16;102136.44;4407907;32;20141;-74
2024/01/29 01:17:53;;;;;;;24.67;20.23;;;;;;;2.12;59.45;102132.97;4407927;32;20243;-74
2024/01/29 01:20:22;;;;;;;42.15;21.90;;;;;;;1.96;59.85;102142.53;4400294;27;20157;-74
2024/01/29 01:22:53;;;;;;;27.20;22.08;;;;;;;1.83;60.12;102149.47;4391842;32;20372;-74
2024/01/29 01:25:22;;;;;;;27.15;23.52;;;;;;;1.78;60.30;102143.34;4392827;32;20166;-74
2024/01/29 01:27:53;;;;;;;31.50;20.77;;;;;;;1.82;60.04;102150.38;4392639;32;20503;-74
2024/01/29 01:30:23;;;;;;;31.17;22.58;;;;;;;1.82;59.97;102144.22;4393131;32;20133;-74
2024/01/29 01:32:52;;;;;;;30.77;22.55;;;;;;;1.76;60.21;102142.50;4392928;32;20169;-75
2024/01/29 01:35:21;;;;;;;27.73;19.30;;;;;;;1.76;60.11;102141.63;4401004;32;20411;-74
2024/01/29 01:37:53;;;;;;;26.55;18.77;;;;;;;1.90;59.66;102129.44;4408074;32;20172;-74
2024/01/29 01:40:24;;;;;;;32.05;19.27;;;;;;;1.77;59.84;102125.06;4408006;32;20471;-75
2024/01/29 01:42:54;;;;;;;26.85;18.85;;;;;;;1.71;60.21;102125.94;4407969;32;20137;-75
2024/01/29 01:45:24;;;;;;;27.60;22.27;;;;;;;1.80;59.75;102125.94;4408135;32;20392;-74
2024/01/29 01:47:56;;;;;;;31.12;20.77;;;;;;;1.78;59.70;102119.81;4407814;32;20152;-75
2024/01/29 01:50:26;;;;;;;28.77;20.57;;;;;;;1.63;59.94;102112.84;4413142;27;20153;-75
2024/01/29 01:52:55;;;;;;;37.88;21.52;;;;;;;1.61;60.08;102126.75;4407696;32;20245;-75
2024/01/29 01:55:29;;;;;;;23.00;19.48;;;;;;;1.53;60.21;102128.47;4407837;32;20153;-75
2024/01/29 01:58:00;;;;;;;25.85;20.10;;;;;;;1.60;59.99;102125.88;4407581;32;20189;-75
2024/01/29 02:00:32;;;;;;;23.30;17.48;;;;;;;1.59;59.76;102120.66;4407688;32;20201;-75
2024/01/29 02:03:01;;;;;;;22.85;17.40;;;;;;;1.67;59.22;102127.66;4407897;32;20165;-75
2024/01/29 02:05:30;;;;;;;21.62;15.80;;;;;;;1.45;59.86;102133.66;4408251;32;20157;-75
2024/01/29 02:07:59;;;;;;;24.98;17.08;;;;;;;1.54;59.68;102128.47;4407742;32;20157;-75
2024/01/29 02:10:31;;;;;;;26.42;17.52;;;;;;;1.47;59.92;102130.22;4407751;32;20149;-74
2024/01/29 02:13:00;;;;;;;22.15;16.08;;;;;;;1.34;60.16;102131.00;4407602;32;20144;-74
2024/01/29 02:15:30;;;;;;;23.55;15.70;;;;;;;1.30;60.27;102131.84;4407536;32;20172;-74
2024/01/29 02:17:59;;;;;;;23.10;16.15;;;;;;;1.38;60.07;102121.44;4407660;32;20165;-75
2024/01/29 02:20:29;;;;;;;19.62;14.10;;;;;;;1.46;59.99;102127.56;4406020;27;20426;-74
2024/01/29 02:23:00;;;;;;;19.65;16.02;;;;;;;1.54;59.70;102124.97;4407590;32;20161;-74
2024/01/29 02:25:29;;;;;;;19.87;13.77;;;;;;;1.39;59.84;102128.44;4407579;32;20152;-75
2024/01/29 02:28:01;;;;;;;19.12;14.50;;;;;;;1.40;59.60;102122.34;4407336;32;20149;-75
2024/01/29 02:30:30;;;;;;;23.52;15.13;;;;;;;1.33;59.83;102125.78;4407796;32;20145;-74
2024/01/29 02:33:00;;;;;;;19.98;14.25;;;;;;;1.30;59.82;102124.00;4407393;32;20149;-75
2024/01/29 02:35:33;;;;;;;19.75;14.35;;;;;;;1.23;59.95;102123.12;4415974;32;20149;-74
2024/01/29 02:38:04;;;;;;;18.92;13.95;;;;;;;1.37;59.53;102127.53;4422655;32;20149;-74
2024/01/29 02:40:33;;;;;;;19.15;15.40;;;;;;;1.30;59.57;102123.16;4422772;32;20168;-74
2024/01/29 02:43:03;;;;;;;18.50;16.12;;;;;;;1.11;59.97;102117.84;4422690;32;20156;-74
2024/01/29 02:45:32;;;;;;;18.55;14.38;;;;;;;1.06;60.04;102116.06;4422700;32;20153;-74
2024/01/29 02:48:01;;;;;;;17.75;14.25;;;;;;;1.31;59.27;102111.84;4422756;32;20398;-74
2024/01/29 02:50:31;;;;;;;23.10;14.25;;;;;;;1.09;60.20;102103.91;4414720;27;20148;-74
2024/01/29 02:53:00;;;;;;;20.95;13.27;;;;;;;1.17;60.24;102109.16;4407622;32;20138;-74
2024/01/29 02:55:34;;;;;;;21.33;13.18;;;;;;;1.22;60.16;102107.44;4407358;32;20142;-74
2024/01/29 02:58:04;;;;;;;21.45;14.38;;;;;;;1.22;60.16;102100.47;4407380;32;20149;-74
2024/01/29 03:00:33;;;;;;;22.87;15.63;;;;;;;1.20;60.11;102098.75;4407417;32;20157;-74
2024/01/29 03:03:06;;;;;;;20.05;13.45;;;;;;;1.08;60.36;102096.06;4393538;32;20133;-74
2024/01/29 03:05:35;;;;;;;24.10;14.07;;;;;;;1.28;59.94;102101.41;4393695;32;20161;-74
2024/01/29 03:08:06;;;;;;;19.15;13.95;;;;;;;1.31;59.48;102099.66;4396861;32;323872;-74
2024/01/29 03:10:37;;;;;;;17.85;12.98;;;;;;;1.24;59.51;102103.12;4407375;32;20487;-74
2024/01/29 03:13:09;;;;;;;17.48;13.95;;;;;;;1.09;59.86;102105.66;4407222;32;20136;-74
2024/01/29 03:15:39;;;;;;;;;;;;;;;1.17;59.73;102112.66;4393726;32;20153;-74
2024/01/29 03:18:11;;;;;;;19.35;14.65;;;;;;;1.11;59.72;102112.63;4406983;32;20017;-74
2024/01/29 03:20:41;;;;;;;16.65;13.55;;;;;;;1.16;59.51;102116.12;4404667;27;20153;-74
2024/01/29 03:23:11;;;;;;;16.33;12.45;;;;;;;1.08;59.93;102128.28;4392370;32;20166;-73
2024/01/29 03:25:42;;;;;;;24.50;15.50;;;;;;;1.20;59.84;102125.72;4392137;32;20160;-74
2024/01/29 03:28:11;;;;;;;19.48;12.95;;;;;;;1.02;60.19;102123.00;4378511;32;20153;-74
2024/01/29 03:30:40;;;;;;;18.17;11.63;;;;;;;1.10;60.11;102116.09;4391927;32;20177;-73
2024/01/29 03:33:13;;;;;;;17.33;12.60;;;;;;;1.29;59.80;102124.03;4391880;32;20162;-73
2024/01/29 03:35:42;;;;;;;18.17;13.20;;;;;;;0.80;60.93;102126.38;4401851;32;20144;-74
2024/01/29 03:38:12;;;;;;;17.45;12.50;;;;;;;0.83;60.81;102124.66;4407156;32;20140;-74
2024/01/29 03:40:42;;;;;;;17.85;13.70;;;;;;;0.81;60.95;102121.16;4407039;32;20177;-73
2024/01/29 03:43:11;;;;;;;17.55;13.07;;;;;;;0.92;60.66;102116.00;4406854;32;20149;-73
2024/01/29 03:45:40;;;;;;;18.55;12.57;;;;;;;0.94;60.67;102122.97;4405686;32;20140;-73
2024/01/29 03:50:49;;;;;;;17.50;12.68;;;;;;;1.00;60.60;102121.28;4411430;27;20176;-74
2024/01/29 03:53:24;;;;;;;19.77;13.07;;;;;;;1.17;59.99;102112.66;4406916;32;20136;-73
2024/01/29 03:55:56;;;;;;;17.20;11.88;;;;;;;1.14;59.90;102123.06;4406614;32;20161;-73
2024/01/29 03:58:26;;;;;;;15.20;11.90;;;;;;;1.00;60.05;102113.44;4406435;32;20486;-73
2024/01/29 04:00:59;;;;;;;14.80;12.20;;;;;;;1.08;59.85;102106.53;4406575;32;20145;-73
2024/01/29 04:03:31;;;;;;;18.00;13.05;;;;;;;1.04;59.80;102110.84;4406650;32;20184;-73
2024/01/29 04:06:00;;;;;;;16.42;12.27;;;;;;;0.81;60.25;102118.53;4406621;32;20467;-73
2024/01/29 04:08:30;;;;;;;15.48;12.30;;;;;;;0.93;60.08;102120.34;4406840;32;20378;-73
2024/01/29 04:11:01;;;;;;;17.15;11.63;;;;;;;0.89;60.33;102121.19;4406365;32;20169;-73
2024/01/29 04:13:34;;;;;;;19.95;11.65;;;;;;;0.82;60.43;102111.59;4392721;32;20137;-73
2024/01/29 04:16:04;;;;;;;17.02;11.52;;;;;;;0.95;60.27;102119.50;4406516;32;20442;-73
2024/01/29 04:18:37;;;;;;;19.23;10.55;;;;;;;0.76;60.78;102120.25;4418300;27;20201;-73
2024/01/29 04:21:07;;;;;;;13.43;10.88;;;;;;;0.83;60.63;102123.75;4375551;32;20406;-73
2024/01/29 04:23:37;;;;;;;18.10;12.02;;;;;;;0.67;61.07;102123.69;4376651;32;20145;-73
2024/01/29 04:26:08;;;;;;;14.25;10.50;;;;;;;0.71;61.10;102130.66;4375760;32;20157;-73
2024/01/29 04:28:40;;;;;;;19.48;10.57;;;;;;;0.90;60.62;102143.81;4375921;32;20177;-74
2024/01/29 04:31:09;;;;;;;16.92;10.82;;;;;;;0.79;60.55;102120.25;4376102;32;20407;-73
2024/01/29 04:33:43;;;;;;;14.50;11.15;;;;;;;0.86;60.32;102119.44;4375983;32;20157;-73
2024/01/29 04:36:14;;;;;;;18.17;12.27;;;;;;;0.74;60.25;102115.00;4389090;32;20173;-73
2024/01/29 04:38:44;;;;;;;20.85;14.10;;;;;;;0.68;60.18;102112.38;4390995;32;20172;-73
2024/01/29 04:41:21;;;;;;;15.18;11.10;;;;;;;0.73;60.24;102112.41;4391157;32;20410;-73
2024/01/29 04:43:50;;;;;;;19.42;12.43;;;;;;;0.65;60.21;102114.97;4390907;32;20184;-73
2024/01/29 04:46:20;;;;;;;15.25;11.32;;;;;;;0.60;60.42;102121.03;4390823;32;20213;-73
2024/01/29 04:48:49;;;;;;;17.45;11.75;;;;;;;0.62;60.20;102116.66;4383451;27;20384;-76
2024/01/29 04:51:21;;;;;;;18.40;12.70;;;;;;;0.57;60.26;102121.00;4405856;32;20133;-73
2024/01/29 04:53:50;;;;;;;21.13;12.43;;;;;;;0.73;59.57;102131.53;4405742;32;20145;-74
2024/01/29 04:56:21;;;;;;;18.15;12.77;;;;;;;0.76;59.53;102129.81;4406280;32;20416;-73
2024/01/29 04:58:50;;;;;;;20.62;13.48;;;;;;;0.60;59.72;102137.53;4407938;32;20228;-73
2024/01/29 05:01:21;;;;;;;18.55;12.90;;;;;;;0.63;59.74;102140.16;4408327;32;20168;-73
2024/01/29 05:03:51;;;;;;;15.43;11.65;;;;;;;0.49;60.09;102137.44;4408158;32;20133;-73
2024/01/29 05:06:21;;;;;;;19.60;13.25;;;;;;;0.70;59.47;102141.94;4408133;32;20152;-73
2024/01/29 05:08:50;;;;;;;25.73;14.60;;;;;;;0.54;59.97;102154.88;4407965;32;20144;-73
2024/01/29 05:11:23;;;;;;;20.17;13.38;;;;;;;0.60;59.73;102147.97;4408269;32;20402;-73
2024/01/29 05:13:53;;;;;;;17.00;12.70;;;;;;;0.58;60.00;102143.59;4408038;32;20140;-73
2024/01/29 05:16:22;;;;;;;21.48;13.32;;;;;;;0.74;59.23;102141.09;4407916;32;20145;-73
2024/01/29 05:18:55;;;;;;;17.83;12.52;;;;;;;0.49;59.99;102144.41;4417744;27;20145;-73
2024/01/29 05:21:25;;;;;;;16.52;12.15;;;;;;;0.58;59.98;102141.84;4392801;32;20185;-73
2024/01/29 05:23:54;;;;;;;19.90;13.27;;;;;;;0.48;60.30;102134.84;4392877;32;20506;-73
2024/01/29 05:26:24;;;;;;;20.37;12.63;;;;;;;0.73;59.65;102146.31;4393162;32;20141;-73
2024/01/29 05:28:54;;;;;;;17.50;12.73;;;;;;;0.62;59.75;102148.84;4386371;32;20156;-73
2024/01/29 05:31:25;;;;;;;16.70;13.55;;;;;;;0.48;59.94;102153.09;4392587;32;20142;-73
2024/01/29 05:33:58;;;;;;;19.53;13.63;;;;;;;0.39;60.20;102158.22;4392813;32;20176;-73
2024/01/29 05:36:27;;;;;;;18.17;12.85;;;;;;;0.40;60.01;102150.41;4407575;32;20427;-73
2024/01/29 05:38:57;;;;;;;20.52;13.75;;;;;;;0.61;59.42;102152.31;4407562;32;20221;-73
2024/01/29 05:41:27;;;;;;;18.55;12.98;;;;;;;0.63;59.31;102145.37;4408298;32;20180;-73
2024/01/29 05:44:00;;;;;;;18.05;11.88;;;;;;;0.41;59.73;102140.84;4407571;32;20148;-73
2024/01/29 05:46:29;;;;;;;20.23;12.73;;;;;;;0.38;59.88;102139.09;4407486;32;20159;-73
2024/01/29 05:49:04;;;;;;;13.98;11.23;;;;;;;0.40;59.91;102137.38;4412461;27;20292;-73
2024/01/29 05:51:33;;;;;;;22.33;13.55;;;;;;;0.48;59.65;102134.84;4407743;32;20177;-75
2024/01/29 05:54:03;;;;;;;18.98;13.13;;;;;;;0.43;59.83;102128.69;4407671;32;20145;-73
2024/01/29 05:56:42;;;;;;;14.93;11.85;;;;;;;0.58;59.13;102134.03;4408032;32;20515;-73
2024/01/29 05:59:11;;;;;;;15.93;11.65;;;;;;;0.39;59.53;102132.13;4407245;32;20149;-73
2024/01/29 06:01:40;;;;;;;18.30;12.55;;;;;;;0.26;59.86;102145.94;4407574;32;20145;-73
2024/01/29 06:04:10;;;;;;;18.65;13.18;;;;;;;0.51;59.22;102147.00;4407615;32;20486;-73
2024/01/29 06:06:41;;;;;;;16.42;13.30;;;;;;;0.38;59.24;102146.91;4407500;32;20193;-73
2024/01/29 06:09:11;;;;;;;21.05;13.50;;;;;;;0.22;59.76;102142.44;4406771;32;20160;-73
2024/01/29 06:11:41;;;;;;;16.15;12.25;;;;;;;0.29;59.45;102139.03;4407729;32;20165;-73
2024/01/29 06:14:14;;;;;;;16.27;12.73;;;;;;;0.22;59.69;102143.28;4408000;32;20142;-73
2024/01/29 06:16:44;;;;;;;17.25;11.18;;;;;;;-0.03;60.98;102156.97;4407599;32;20161;-74
2024/01/29 06:19:18;;;;;;;18.65;11.95;;;;;;;-0.09;61.27;102156.88;4408690;27;20161;-73
2024/01/29 06:21:49;;;;;;;22.42;14.77;;;;;;;0.02;61.00;102150.06;4392552;32;20145;-73
2024/01/29 06:24:19;;;;;;;15.00;12.27;;;;;;;0.22;60.65;102153.72;4392476;32;20170;-73
2024/01/29 06:26:50;;;;;;;18.75;12.98;;;;;;;0.23;60.51;102159.81;4392426;32;20137;-73
2024/01/29 06:29:19;;;;;;;18.85;13.32;;;;;;;0.28;60.51;102159.84;4392461;32;20204;-73
2024/01/29 06:31:48;;;;;;;23.45;11.75;;;;;;;0.29;60.31;102159.00;4392530;32;20380;-74
2024/01/29 06:34:23;;;;;;;17.08;12.77;;;;;;;0.28;60.36;102160.75;4393922;32;20145;-74
2024/01/29 06:36:53;;;;;;;20.92;13.02;;;;;;;0.32;60.15;102159.91;4407485;32;20156;-74
2024/01/29 06:39:24;;;;;;;21.35;13.55;;;;;;;0.17;60.55;102175.41;4407308;32;20167;-74
2024/01/29 06:41:55;;;;;;;18.08;13.57;;;;;;;0.18;60.61;102164.97;4407609;32;20142;-74
2024/01/29 06:44:25;;;;;;;24.23;13.65;;;;;;;0.41;59.91;102162.59;4407685;32;20137;-74
2024/01/29 06:46:54;;;;;;;16.95;12.45;;;;;;;0.39;60.12;102168.66;4407426;32;20145;-74
2024/01/29 06:49:31;;;;;;;18.80;13.85;;;;;;;0.21;60.56;102166.75;4416854;27;20156;-74
2024/01/29 06:52:00;;;;;;;20.70;15.90;;;;;;;-0.05;61.28;102159.53;4422597;32;20172;-74
2024/01/29 06:54:30;;;;;;;25.27;15.73;;;;;;;0.05;61.26;102160.53;4422647;32;20231;-74
2024/01/29 06:57:00;;;;;;;18.37;13.82;;;;;;;0.06;61.54;102166.59;4422514;32;20192;-74
2024/01/29 06:59:30;;;;;;;24.25;14.18;;;;;;;0.11;61.87;102170.13;4416144;32;20173;-72
2024/01/29 07:01:59;;;;;;;17.62;15.43;;;;;;;0.39;61.34;102168.66;4422552;32;20136;-72
2024/01/29 07:04:34;;;;;;;21.27;12.68;;;;;;;0.59;61.98;102161.84;4422404;32;20128;-73
2024/01/29 07:07:05;;;;;;;23.83;13.60;;;;;;;1.15;60.28;102176.19;4422550;32;20482;-74
2024/01/29 07:09:34;;;;;;;19.10;13.13;;;;;;;1.71;58.38;102166.00;4422364;32;20407;-73
2024/01/29 07:12:05;;;;;;;16.50;11.85;;;;;;;2.14;56.75;102171.34;4422406;32;20164;-74
2024/01/29 07:14:35;;;;;;;18.05;13.15;;;;;;;2.42;55.78;102169.63;4422633;32;20153;-74
2024/01/29 07:17:08;;;;;;;19.87;12.15;;;;;;;2.82;54.67;102177.47;4422076;32;20153;-74
2024/01/29 07:19:41;;;;;;;14.63;10.07;;;;;;;2.75;54.63;102170.50;4415401;27;20153;-74
2024/01/29 07:22:18;;;;;;;21.50;11.65;;;;;;;2.82;54.72;102177.47;4391777;32;20145;-74
2024/01/29 07:24:49;;;;;;;21.17;13.48;;;;;;;3.03;54.51;102175.72;4391644;32;20129;-72
2024/01/29 07:27:19;;;;;;;20.50;13.35;;;;;;;3.48;53.42;102177.31;4391714;32;20235;-72
2024/01/29 07:29:49;;;;;;;18.65;11.73;;;;;;;4.00;52.10;102169.22;4391518;32;20173;-72
2024/01/29 07:32:31;;;;;;;17.83;12.32;;;;;;;4.46;51.38;102175.91;4391989;32;20180;-72
2024/01/29 07:35:09;;;;;;;24.65;13.70;;;;;;;4.67;50.63;102175.72;4384161;32;20141;-72
2024/01/29 07:37:45;;;;;;;17.77;12.27;;;;;;;4.98;49.88;102176.31;4406599;32;20148;-72
2024/01/29 07:40:15;;;;;;;16.73;12.60;;;;;;;5.03;49.42;102185.06;4406328;32;20153;-72
2024/01/29 07:42:45;;;;;;;15.27;12.02;;;;;;;4.90;49.50;102189.53;4406638;32;20160;-72
2024/01/29 07:45:19;;;;;;;18.42;11.50;;;;;;;4.79;49.66;102180.91;4406778;32;20394;-71
2024/01/29 07:47:48;;;;;;;16.12;12.50;;;;;;;4.79;49.85;102183.53;4406563;32;20160;-72
2024/01/29 07:50:21;;;;;;;19.45;13.10;;;;;;;4.64;50.17;102179.28;4418709;27;20148;-72
2024/01/29 07:52:50;;;;;;;;;;;;;;;4.75;50.60;102173.03;4406873;32;20158;-72
2024/01/29 07:55:23;;;;;;;17.40;11.95;;;;;;;5.13;49.77;102172.69;4406475;32;20024;-72
2024/01/29 07:57:54;;;;;;;13.13;11.25;;;;;;;5.52;49.37;102168.72;4406431;32;20165;-72
2024/01/29 08:00:23;;;;;;;15.07;10.77;;;;;;;5.62;48.88;102170.38;4406165;32;20145;-72
2024/01/29 08:02:55;;;;;;;16.58;11.07;;;;;;;5.93;48.85;102163.84;4406521;32;20136;-72
2024/01/29 08:05:25;;;;;;;15.75;12.10;;;;;;;6.19;48.27;102158.22;4406948;32;20140;-72
2024/01/29 08:07:59;;;;;;;25.65;11.23;;;;;;;6.64;47.31;102167.16;4400265;32;20164;-72
2024/01/29 08:10:28;;;;;;;15.52;11.15;;;;;;;7.08;46.35;102161.06;4406425;32;20144;-72
2024/01/29 08:12:59;;;;;;;17.45;11.57;;;;;;;7.37;45.74;102160.53;4406618;32;20168;-73
2024/01/29 08:15:31;;;;;;;22.75;12.93;;;;;;;7.58;45.43;102161.87;4406482;32;20137;-73
2024/01/29 08:18:00;;;;;;;17.52;13.15;;;;;;;7.75;44.93;102156.22;4406624;32;20145;-73
2024/01/29 08:20:32;;;;;;;19.37;11.65;;;;;;;8.30;44.43;102151.47;4401004;27;20157;-73
2024/01/29 08:23:02;;;;;;;18.55;12.63;;;;;;;8.21;44.15;102147.28;4391361;32;20149;-73
2024/01/29 08:25:31;;;;;;;16.17;12.40;;;;;;;8.89;42.99;102141.19;4391181;32;20416;-73
2024/01/29 08:28:02;;;;;;;19.25;13.00;;;;;;;9.49;41.52;102143.06;4391158;32;20237;-73
2024/01/29 08:30:31;;;;;;;15.38;10.77;;;;;;;9.87;40.77;102135.75;4390937;32;20173;-73
2024/01/29 08:33:00;;;;;;;17.58;13.13;;;;;;;10.33;40.48;102132.56;4392583;32;20422;-73
2024/01/29 08:35:32;;;;;;;16.45;11.93;;;;;;;10.99;39.04;102137.41;4402122;32;20141;-73
2024/01/29 08:38:02;;;;;;;19.30;13.95;;;;;;;11.50;37.84;102134.63;4394739;32;20144;-74
2024/01/29 08:40:42;;;;;;;17.95;11.35;;;;;;;12.10;36.75;102129.69;4408049;32;20144;-74
2024/01/29 08:43:12;;;;;;;14.93;12.45;;;;;;;12.23;36.62;102136.22;4408246;32;20403;-74
2024/01/29 08:45:48;;;;;;;16.23;11.93;;;;;;;12.74;35.31;102131.47;4407997;32;20522;-74
2024/01/29 08:48:18;;;;;;;18.37;13.55;;;;;;;13.20;35.12;102134.78;4408005;32;20416;-74
2024/01/29 08:50:53;;;;;;;26.62;14.85;;;;;;;13.42;34.19;102135.59;4412676;27;20148;-74
2024/01/29 08:53:23;;;;;;;30.15;19.33;;;;;;;13.83;33.59;102129.28;4394657;32;20132;-74
2024/01/29 08:55:52;;;;;;;28.55;18.20;;;;;;;14.08;33.02;102120.94;4408162;32;20210;-74
2024/01/29 08:58:24;;;;;;;40.55;22.33;;;;;;;13.95;38.50;102128.69;4408091;32;20153;-74
2024/01/29 09:01:00;;;;;;;31.45;21.52;;;;;;;14.48;37.21;102130.50;4407732;32;20140;-74
2024/01/29 09:03:30;;;;;;;27.48;19.48;;;;;;;14.75;35.37;102125.63;4408099;32;20156;-74
2024/01/29 09:06:02;;;;;;;22.45;13.62;;;;;;;15.39;30.90;102124.87;4407989;32;20475;-74
2024/01/29 09:08:32;;;;;;;32.75;18.35;;;;;;;15.17;31.04;102129.66;4407870;32;20408;-74
2024/01/29 09:11:03;;;;;;;25.37;16.17;;;;;;;15.09;31.38;102123.88;4407892;32;20149;-73
2024/01/29 09:13:33;;;;;;;19.35;14.45;;;;;;;15.04;31.38;102136.59;4408087;32;20161;-73
2024/01/29 09:16:02;;;;;;;22.20;13.40;;;;;;;15.07;31.50;102128.41;4407673;32;20425;-73
2024/01/29 09:21:09;;;;;;;22.10;13.43;;;;;;;15.02;31.35;102144.69;4399012;27;20150;-73
2024/01/29 09:23:45;;;;;;;17.17;12.32;;;;;;;15.16;31.23;102135.94;4392742;32;20389;-72
2024/01/29 09:26:18;;;;;;;14.85;10.50;;;;;;;15.15;31.74;102142.22;4379497;32;20145;-72
2024/01/29 09:28:48;;;;;;;14.98;10.85;;;;;;;14.79;31.70;102132.53;4392805;32;20396;-72
2024/01/29 09:31:18;;;;;;;21.30;15.38;;;;;;;15.02;31.81;102136.69;4393007;32;20137;-72
2024/01/29 09:33:47;;;;;;;13.93;11.73;;;;;;;13.58;33.51;102140.19;4393025;32;20181;-72
2024/01/29 09:36:18;;;;;;;15.30;7.95;;;;;;;13.56;33.37;102142.94;4406655;32;20128;-72
2024/01/29 09:38:47;;;;;;;10.52;7.43;;;;;;;13.41;33.94;102140.97;4407822;32;20168;-72
2024/01/29 09:41:16;;;;;;;9.88;6.78;;;;;;;13.55;32.97;102135.88;4408364;32;20149;-72
2024/01/29 09:43:49;;;;;;;14.32;9.95;;;;;;;11.90;35.41;102141.09;4407116;32;20169;-72
2024/01/29 09:46:22;;;;;;;13.60;12.18;;;;;;;11.37;36.92;102140.47;4407809;32;20133;-72
